Главная страница
METAR-TAF:

METAR-TAF

Аэропорты :

Синт-Эстатиус, Нидерландские Антильские острова

широта: 17-29N, долгота: 062-59W, высота над уровнем моря: 38 м

Текущие метеонаблюдения

Эта сводка был подготовлена 27 минут назад, в 08:55 UTC
Ветер 8 Узел от восточно-юго-восточный, изменяющийся между восточно-северо-восточный и юго-юго-восточный
Температура 24°C
Влажность 89%
Давление 1015 hPa

METAR: TNCE 160855Z AUTO 12008KT 070V150 //// // ///////// 24/22 Q1015 RE//

Время: 05:22 (09:22 UTC)


TAF: отсутствует

Метеонаблюдения и прогнозы для более 4000 аэропортов (сводки METAR и TAF).

Имеющиеся станции представлены на карте желтыми и красными точками.

Чтобы увидеть название станции, наведите на нее мышь.

Затем щелкните, чтобы увидеть метеонаблюдения и метеопрогнозы.

Управление картой: чтобы увеличить масштаб, щелкните зеленые кнопки с черным крестиком; чтобы уменьшить масштаб, щелкните зеленую кнопку с тире; для просмотра соседних карт щелкайте зеленые стрелки.


METAR-TAF: